createdAt,value
2023-05-24T00:03:21.674Z,17.70
2023-05-24T00:08:23.699Z,17.66
2023-05-24T00:13:25.444Z,17.60
2023-05-24T00:18:27.074Z,17.58
2023-05-24T00:23:28.690Z,17.54
2023-05-24T00:28:31.344Z,17.51
2023-05-24T00:33:33.043Z,17.55
2023-05-24T00:38:34.664Z,17.45
2023-05-24T00:43:37.169Z,17.42
2023-05-24T00:48:38.863Z,17.33
2023-05-24T00:53:44.653Z,17.28
2023-05-24T00:58:47.046Z,17.20
2023-05-24T01:03:49.067Z,17.16
2023-05-24T01:09:14.670Z,17.10
2023-05-24T01:14:31.646Z,17.10
2023-05-24T01:19:56.434Z,17.00
2023-05-24T01:25:19.367Z,16.97
2023-05-24T01:30:21.161Z,16.92
2023-05-24T01:35:23.784Z,16.85
2023-05-24T01:40:25.782Z,16.82
2023-05-24T01:45:46.215Z,16.76
2023-05-24T01:50:57.803Z,16.66
2023-05-24T01:56:02.994Z,16.66
2023-05-24T02:01:05.062Z,16.56
2023-05-24T02:06:08.140Z,16.47
2023-05-24T02:11:10.017Z,16.40
2023-05-24T02:16:11.718Z,16.38
2023-05-24T02:21:13.461Z,16.30
2023-05-24T02:26:17.704Z,16.25
2023-05-24T02:31:19.463Z,16.20
2023-05-24T02:36:23.508Z,16.12
2023-05-24T02:41:25.228Z,15.98
2023-05-24T02:46:27.284Z,15.93
2023-05-24T02:51:29.279Z,15.82
2023-05-24T02:56:30.955Z,15.79
2023-05-24T03:01:34.440Z,15.73
2023-05-24T03:06:38.087Z,15.68
2023-05-24T03:11:39.718Z,15.66
2023-05-24T03:16:41.675Z,15.57
2023-05-24T03:21:44.311Z,15.52
2023-05-24T03:26:45.999Z,15.51
2023-05-24T03:31:48.691Z,15.55
2023-05-24T03:36:50.417Z,15.72
2023-05-24T03:41:53.152Z,15.81
2023-05-24T03:46:55.873Z,16.05
2023-05-24T03:51:57.582Z,16.23
2023-05-24T03:56:59.347Z,16.38
2023-05-24T04:02:02.280Z,16.73
2023-05-24T04:07:05.109Z,17.09
2023-05-24T04:12:07.040Z,17.39
2023-05-24T04:17:09.164Z,17.37
2023-05-24T04:22:10.997Z,17.20
2023-05-24T04:27:13.052Z,17.18
2023-05-24T04:32:15.154Z,17.45
2023-05-24T04:37:17.350Z,17.97
2023-05-24T04:42:20.814Z,18.54
2023-05-24T04:47:22.697Z,18.98
2023-05-24T04:52:24.492Z,19.39
2023-05-24T04:57:26.240Z,19.65
2023-05-24T05:02:28.122Z,19.83
2023-05-24T05:07:29.882Z,20.04
2023-05-24T05:12:31.487Z,20.41
2023-05-24T05:17:33.123Z,20.58
2023-05-24T05:22:34.807Z,20.55
2023-05-24T05:27:36.417Z,20.38
2023-05-24T05:32:38.428Z,20.45
2023-05-24T05:37:40.561Z,20.69
2023-05-24T05:42:42.791Z,20.39
2023-05-24T05:47:45.050Z,20.31
2023-05-24T05:52:47.088Z,20.53
2023-05-24T05:57:48.750Z,20.52
2023-05-24T06:02:50.462Z,20.08
2023-05-24T06:07:52.137Z,19.84
2023-05-24T06:12:54.273Z,19.83
2023-05-24T06:17:56.161Z,20.08
2023-05-24T06:22:57.856Z,20.38
2023-05-24T06:27:59.493Z,20.35
2023-05-24T06:33:02.481Z,20.54
2023-05-24T06:38:04.205Z,20.33
2023-05-24T06:43:06.352Z,20.49
2023-05-24T06:48:08.260Z,20.82
2023-05-24T06:53:10.595Z,20.88
2023-05-24T06:58:14.471Z,21.00
2023-05-24T07:03:16.463Z,21.35
2023-05-24T07:08:18.144Z,21.62
2023-05-24T07:13:19.845Z,21.78
2023-05-24T07:18:21.717Z,21.80
2023-05-24T07:23:23.343Z,22.11
2023-05-24T07:28:25.023Z,21.68
2023-05-24T07:33:26.961Z,21.69
2023-05-24T07:38:30.118Z,22.16
2023-05-24T07:43:31.816Z,22.60
2023-05-24T07:48:33.433Z,22.69
2023-05-24T07:53:37.676Z,22.23
2023-05-24T07:58:41.328Z,22.65
2023-05-24T08:03:43.100Z,22.61
2023-05-24T08:08:45.944Z,22.66
2023-05-24T08:13:47.772Z,23.25
2023-05-24T08:18:49.411Z,22.34
2023-05-24T08:23:51.473Z,22.69
2023-05-24T08:28:53.141Z,22.25
2023-05-24T08:33:56.115Z,22.42
2023-05-24T08:38:59.686Z,22.33
2023-05-24T08:44:02.467Z,22.42
2023-05-24T08:49:04.645Z,23.01
2023-05-24T08:54:07.599Z,23.33
2023-05-24T08:59:10.402Z,23.14
2023-05-24T09:04:12.562Z,23.41
2023-05-24T09:09:18.604Z,23.17
2023-05-24T09:14:20.439Z,22.47
2023-05-24T09:19:22.146Z,22.80
2023-05-24T09:24:24.105Z,23.30
2023-05-24T09:29:26.230Z,23.42
2023-05-24T09:34:27.860Z,23.55
2023-05-24T09:39:30.153Z,23.98
2023-05-24T09:44:32.150Z,22.99
2023-05-24T09:49:37.080Z,23.82
2023-05-24T09:54:40.202Z,23.81
2023-05-24T09:59:42.942Z,23.93
2023-05-24T10:04:45.285Z,24.31
2023-05-24T10:09:47.195Z,24.46
2023-05-24T10:14:52.003Z,24.74
2023-05-24T10:19:53.657Z,23.65
2023-05-24T10:24:59.755Z,24.06
2023-05-24T10:35:38.131Z,23.77
2023-05-24T10:40:43.805Z,23.77
2023-05-24T10:41:49.913Z,24.33
2023-05-24T10:45:49.585Z,24.21
2023-05-24T10:50:52.060Z,23.33
2023-05-24T10:55:57.266Z,24.17
2023-05-24T11:00:58.888Z,23.77
2023-05-24T11:06:00.654Z,23.68
2023-05-24T11:11:19.163Z,24.11
2023-05-24T11:16:38.196Z,24.20
2023-05-24T11:21:43.552Z,23.97
2023-05-24T11:26:45.704Z,25.19
2023-05-24T11:31:49.093Z,25.33
2023-05-24T11:36:53.312Z,24.77
2023-05-24T11:41:55.099Z,24.06
2023-05-24T11:46:59.590Z,25.00
2023-05-24T11:52:01.851Z,25.25
2023-05-24T11:57:05.722Z,24.38
2023-05-24T12:02:08.926Z,24.10
2023-05-24T12:07:11.571Z,24.73
2023-05-24T12:12:13.236Z,24.57
2023-05-24T12:17:18.447Z,24.35
2023-05-24T12:22:20.093Z,25.30
2023-05-24T12:27:27.544Z,24.99
2023-05-24T12:32:29.485Z,23.58
2023-05-24T12:37:31.565Z,24.57
2023-05-24T12:42:33.399Z,25.48
2023-05-24T12:47:35.097Z,25.78
2023-05-24T12:52:36.775Z,26.44
2023-05-24T12:57:38.696Z,26.50
2023-05-24T13:02:40.642Z,24.85
2023-05-24T13:07:45.144Z,25.29
2023-05-24T13:12:47.132Z,25.06
2023-05-24T13:17:48.869Z,24.77
2023-05-24T13:22:51.321Z,24.64
2023-05-24T13:27:52.974Z,24.88
2023-05-24T13:32:55.894Z,25.24
2023-05-24T13:37:58.553Z,23.70
2023-05-24T13:43:00.319Z,24.57
2023-05-24T13:48:05.524Z,23.81
2023-05-24T13:53:07.267Z,23.89
2023-05-24T13:58:08.999Z,24.29
2023-05-24T14:03:13.060Z,23.48
2023-05-24T14:08:14.774Z,24.03
2023-05-24T14:13:48.475Z,23.27
2023-05-24T14:18:38.177Z,23.68
2023-05-24T14:23:39.824Z,23.63
2023-05-24T14:28:41.974Z,23.73
2023-05-24T14:33:43.861Z,23.53
2023-05-24T14:38:45.577Z,23.63
2023-05-24T14:43:47.442Z,23.29
2023-05-24T14:48:49.149Z,23.06
2023-05-24T14:53:51.058Z,22.90
2023-05-24T14:58:53.308Z,22.39
2023-05-24T15:03:56.105Z,22.34
2023-05-24T15:08:57.792Z,22.21
2023-05-24T15:14:00.990Z,22.25
2023-05-24T15:19:02.763Z,22.23
2023-05-24T15:24:04.705Z,22.22
2023-05-24T15:29:06.624Z,22.38
2023-05-24T15:34:08.513Z,22.35
2023-05-24T15:39:10.436Z,22.35
2023-05-24T15:44:12.316Z,22.13
2023-05-24T15:49:14.180Z,21.91
2023-05-24T15:54:16.078Z,21.83
2023-05-24T15:59:19.105Z,21.62
2023-05-24T16:04:22.568Z,21.67
2023-05-24T16:09:24.462Z,21.95
2023-05-24T16:14:26.187Z,21.93
2023-05-24T16:19:27.814Z,21.65
2023-05-24T16:24:29.493Z,21.36
2023-05-24T16:29:31.354Z,20.76
2023-05-24T16:34:41.664Z,20.81
2023-05-24T16:39:55.167Z,20.81
2023-05-24T16:44:56.897Z,20.49
2023-05-24T16:49:58.550Z,20.41
2023-05-24T16:55:00.213Z,20.25
2023-05-24T17:00:02.239Z,20.53
2023-05-24T17:05:04.026Z,20.55
2023-05-24T17:10:06.499Z,20.46
2023-05-24T17:15:08.708Z,20.17
2023-05-24T17:20:10.830Z,20.41
2023-05-24T17:25:12.512Z,20.18
2023-05-24T17:30:14.232Z,20.14
2023-05-24T17:35:15.963Z,20.09
2023-05-24T17:40:17.865Z,19.66
2023-05-24T17:45:19.493Z,19.80
2023-05-24T17:50:21.563Z,19.75
2023-05-24T17:55:23.227Z,19.59
2023-05-24T18:00:26.498Z,19.33
2023-05-24T18:05:28.158Z,19.30
2023-05-24T18:10:31.299Z,19.05
2023-05-24T18:15:32.928Z,18.95
2023-05-24T18:20:35.540Z,19.07
2023-05-24T18:25:37.234Z,18.41
2023-05-24T18:30:39.369Z,18.38
2023-05-24T18:35:41.135Z,18.20
2023-05-24T18:40:43.050Z,18.16
2023-05-24T18:45:44.893Z,18.11
2023-05-24T18:50:47.384Z,18.02
2023-05-24T18:55:49.061Z,17.68
2023-05-24T19:00:50.873Z,17.58
2023-05-24T19:05:52.597Z,17.84
2023-05-24T19:10:54.208Z,17.75
2023-05-24T19:15:56.569Z,17.70
2023-05-24T19:20:58.443Z,17.86
2023-05-24T19:26:00.154Z,18.19
2023-05-24T19:31:02.432Z,17.87
2023-05-24T19:36:04.272Z,18.06
2023-05-24T19:41:06.103Z,17.97
2023-05-24T19:46:07.821Z,17.79
2023-05-24T19:51:09.582Z,17.61
2023-05-24T19:56:11.514Z,16.99
2023-05-24T20:01:13.271Z,16.85
2023-05-24T20:06:16.500Z,16.96
2023-05-24T20:11:18.156Z,16.81
2023-05-24T20:16:19.915Z,17.03
2023-05-24T20:21:21.862Z,17.28
2023-05-24T20:26:23.492Z,17.43
2023-05-24T20:31:25.128Z,17.49
2023-05-24T20:36:26.752Z,17.49
2023-05-24T20:41:30.511Z,17.50
2023-05-24T20:46:32.420Z,17.41
2023-05-24T20:51:34.340Z,17.30
2023-05-24T20:56:36.380Z,17.25
2023-05-24T21:01:38.131Z,17.10
2023-05-24T21:06:39.906Z,16.87
2023-05-24T21:11:41.562Z,16.75
2023-05-24T21:16:44.058Z,16.74
2023-05-24T21:21:45.744Z,16.88
2023-05-24T21:26:48.576Z,17.14
2023-05-24T21:31:50.292Z,17.22
2023-05-24T21:36:51.934Z,17.01
2023-05-24T21:41:53.811Z,16.97
2023-05-24T21:46:55.966Z,16.86
2023-05-24T21:51:57.799Z,16.86
2023-05-24T21:56:59.517Z,16.83
2023-05-24T22:02:01.375Z,16.84
2023-05-24T22:07:03.200Z,16.69
2023-05-24T22:12:05.226Z,16.61
2023-05-24T22:17:06.861Z,16.57
2023-05-24T22:22:09.885Z,16.59
2023-05-24T22:27:13.637Z,16.46
2023-05-24T22:32:15.484Z,16.17
2023-05-24T22:37:17.196Z,16.18
2023-05-24T22:42:19.229Z,16.09
2023-05-24T22:47:21.932Z,16.12
2023-05-24T22:52:24.669Z,15.98
2023-05-24T22:57:26.416Z,15.79
2023-05-24T23:02:29.097Z,15.66
2023-05-24T23:07:30.984Z,15.69
2023-05-24T23:12:33.186Z,15.95
2023-05-24T23:17:34.892Z,15.92
2023-05-24T23:22:37.872Z,15.82
2023-05-24T23:27:40.753Z,15.68
2023-05-24T23:32:42.850Z,15.55
2023-05-24T23:37:44.520Z,15.49
2023-05-24T23:42:46.290Z,15.39
2023-05-24T23:47:47.955Z,15.31
2023-05-24T23:52:50.441Z,15.32
2023-05-24T23:57:53.814Z,15.40
